Time;durP1;ratioP1;P1;durP2;ratioP2;P2;SDS_P1;SDS_P2;PMS_P1;PMS_P2;Temp;Humidity;BMP_temperature;BMP_pressure;BME280_temperature;BME280_humidity;BME280_pressure;Samples;Min_cycle;Max_cycle;Signal;HPM_P1;HPM_P2
2021/04/13 00:00:06;;;;;;;7.10;6.50;;;;;;;0.54;92.34;99090.03;5058585;28;20855;-73
2021/04/13 00:02:53;;;;;;;6.83;6.33;;;;;;;0.59;92.47;99093.25;5060508;28;20679;-70
2021/04/13 00:05:31;;;;;;;6.97;6.47;;;;;;;0.56;92.14;99094.22;5057564;28;21114;-71
2021/04/13 00:08:01;;;;;;;7.03;6.33;;;;;;;0.53;92.62;99098.75;5059412;28;20236;-72
2021/04/13 00:10:31;;;;;;;7.90;7.20;;;;;;;0.52;93.17;99097.91;5056898;28;20322;-71
2021/04/13 00:12:59;;;;;;;7.67;7.10;;;;;;;0.59;91.79;99100.25;5059905;28;20235;-72
2021/04/13 00:15:28;;;;;;;6.93;6.43;;;;;;;0.45;92.34;99096.50;5059637;28;20654;-72
2021/04/13 00:17:58;;;;;;;7.83;6.90;;;;;;;0.59;92.05;99095.03;5060304;28;21030;-71
2021/04/13 00:20:32;;;;;;;7.10;6.60;;;;;;;0.41;93.13;99093.22;5061036;28;20233;-73
2021/04/13 00:22:59;;;;;;;6.50;6.00;;;;;;;0.35;93.32;99100.47;5060171;28;20214;-71
2021/04/13 00:25:29;;;;;;;7.27;6.57;;;;;;;0.39;93.75;99088.97;5057739;28;20226;-72
2021/04/13 00:27:57;;;;;;;7.23;6.70;;;;;;;0.38;92.59;99093.38;5060586;28;20207;-71
2021/04/13 00:30:27;;;;;;;7.27;6.67;;;;;;;0.40;92.61;99096.75;5065671;28;20668;-71
2021/04/13 00:33:01;;;;;;;7.10;6.40;;;;;;;0.37;92.63;99101.25;5059315;28;20206;-72
2021/04/13 00:35:31;;;;;;;7.03;6.53;;;;;;;0.39;92.54;99102.03;5063570;28;20420;-71
2021/04/13 00:38:31;;;;;;;7.03;6.43;;;;;;;0.34;91.89;99094.41;5064841;28;20334;-71
2021/04/13 00:41:08;;;;;;;6.93;6.37;;;;;;;0.31;92.92;99091.94;5062734;28;20378;-71
2021/04/13 00:43:38;;;;;;;7.63;7.03;;;;;;;0.14;92.84;99090.97;5064472;28;20344;-72
2021/04/13 00:46:06;;;;;;;8.00;7.23;;;;;;;0.33;92.03;99097.94;5064673;28;20678;-73
2021/04/13 00:48:37;;;;;;;7.27;6.67;;;;;;;0.34;91.74;99098.78;5060549;28;20564;-71
2021/04/13 00:51:08;;;;;;;7.40;6.77;;;;;;;0.28;91.85;99095.56;5063628;28;20333;-72
2021/04/13 00:53:36;;;;;;;6.83;6.23;;;;;;;0.42;90.67;99089.69;5061512;28;20202;-72
2021/04/13 00:56:08;;;;;;;7.30;6.70;;;;;;;0.36;91.17;99087.34;5063188;28;20647;-72
2021/04/13 00:58:39;;;;;;;7.07;6.47;;;;;;;0.32;91.22;99084.97;5065457;28;20223;-72
2021/04/13 01:01:10;;;;;;;6.73;6.23;;;;;;;0.14;92.14;99092.72;5064251;28;20223;-72
2021/04/13 01:03:46;;;;;;;7.00;6.40;;;;;;;0.21;91.11;99091.53;5064572;28;20257;-72
2021/04/13 01:06:19;;;;;;;8.73;6.77;;;;;;;0.13;92.39;99096.25;5060370;28;20206;-72
2021/04/13 01:08:47;;;;;;;10.27;8.23;;;;;;;0.12;90.85;99099.78;5063936;28;20235;-73
2021/04/13 01:11:16;;;;;;;8.10;7.40;;;;;;;0.07;91.55;99093.94;5064765;28;20218;-73
2021/04/13 01:13:47;;;;;;;8.17;7.43;;;;;;;0.10;91.30;99089.44;5065588;28;20297;-72
2021/04/13 01:16:15;;;;;;;7.33;6.63;;;;;;;0.12;90.96;99089.34;5065160;28;20229;-72
2021/04/13 01:18:44;;;;;;;7.70;7.10;;;;;;;0.24;89.55;99094.00;5063448;28;20350;-72
2021/04/13 01:21:23;;;;;;;8.70;7.83;;;;;;;0.05;90.52;99088.81;5062469;28;20226;-72
2021/04/13 01:23:54;;;;;;;11.07;8.10;;;;;;;0.12;90.42;99089.34;5064184;28;20921;-73
2021/04/13 01:26:22;;;;;;;8.17;7.47;;;;;;;0.11;90.50;99092.88;5060254;28;20215;-73
2021/04/13 01:28:51;;;;;;;9.80;8.70;;;;;;;-0.06;91.36;99086.69;5062011;28;20298;-72
2021/04/13 01:34:08;;;;;;;8.10;7.30;;;;;;;-0.10;92.21;99092.94;5060314;28;20290;-72
2021/04/13 01:36:37;;;;;;;7.77;6.40;;;;;;;0.11;90.16;99096.34;5060564;28;20217;-73
2021/04/13 01:39:08;;;;;;;7.50;6.90;;;;;;;0.23;89.00;99094.94;5062952;28;20610;-72
2021/04/13 01:41:47;;;;;;;7.10;6.60;;;;;;;0.09;89.22;99090.34;5063304;28;20246;-73
2021/04/13 01:44:17;;;;;;;7.37;6.73;;;;;;;0.01;90.11;99092.47;5059171;28;20296;-72
2021/04/13 01:46:44;;;;;;;7.20;6.50;;;;;;;0.14;89.24;99103.16;5063774;28;20203;-72
2021/04/13 01:49:13;;;;;;;6.37;5.87;;;;;;;0.15;88.55;99099.63;5060854;28;20207;-73
2021/04/13 01:51:40;;;;;;;6.60;6.10;;;;;;;-0.06;89.44;99101.44;5061864;28;20238;-72
2021/04/13 01:54:14;;;;;;;6.83;6.33;;;;;;;0.04;88.83;99104.50;5056574;28;20690;-73
2021/04/13 01:56:49;;;;;;;7.50;6.87;;;;;;;-0.07;89.94;99102.38;5063767;28;20485;-71
2021/04/13 01:59:21;;;;;;;7.00;6.40;;;;;;;-0.06;90.53;99104.06;5062771;28;20318;-72
2021/04/13 02:01:53;;;;;;;6.27;5.87;;;;;;;-0.04;90.74;99105.69;5060323;28;20205;-72
2021/04/13 02:04:25;;;;;;;6.90;6.30;;;;;;;-0.15;90.98;99108.78;5057965;28;20202;-73
2021/04/13 02:07:05;;;;;;;6.73;6.17;;;;;;;-0.06;91.04;99102.31;5059476;28;20206;-72
2021/04/13 02:09:38;;;;;;;6.47;5.87;;;;;;;-0.09;91.01;99110.28;5060792;28;20233;-73
2021/04/13 02:12:11;;;;;;;7.27;6.67;;;;;;;-0.11;90.37;99104.28;5060719;28;20559;-72
2021/04/13 02:14:42;;;;;;;6.70;6.20;;;;;;;-0.08;90.69;99108.50;5062057;28;20207;-73
2021/04/13 02:17:13;;;;;;;7.63;7.07;;;;;;;-0.15;91.34;99102.72;5061623;28;20219;-72
2021/04/13 02:19:47;;;;;;;6.50;5.87;;;;;;;-0.07;90.71;99108.44;5062683;28;20229;-71
2021/04/13 02:22:16;;;;;;;6.80;6.30;;;;;;;-0.20;90.86;99117.69;5062558;28;20207;-72
2021/04/13 02:24:46;;;;;;;6.83;6.17;;;;;;;-0.17;91.52;99107.16;5063092;28;20206;-72
2021/04/13 02:27:16;;;;;;;6.87;6.17;;;;;;;-0.34;91.73;99108.75;5064237;28;20667;-73
2021/04/13 02:29:46;;;;;;;6.50;6.00;;;;;;;-0.31;91.80;99108.59;5063333;28;20591;-73
2021/04/13 02:32:15;;;;;;;7.43;6.83;;;;;;;-0.40;91.81;99114.22;5061773;28;20199;-73
2021/04/13 02:34:47;;;;;;;6.77;6.17;;;;;;;-0.30;91.47;99115.50;5059430;28;20350;-73
2021/04/13 02:37:18;;;;;;;6.73;6.23;;;;;;;-0.46;92.35;99112.72;5061768;28;21087;-72
2021/04/13 02:39:45;;;;;;;6.90;6.30;;;;;;;-0.32;92.35;99112.13;5054739;28;20329;-73
2021/04/13 02:42:17;;;;;;;7.20;6.67;;;;;;;-0.46;92.58;99117.09;5059185;28;20582;-72
2021/04/13 02:44:54;;;;;;;6.97;6.37;;;;;;;-0.33;92.37;99123.47;5061343;28;20212;-73
2021/04/13 02:47:22;;;;;;;7.30;6.70;;;;;;;-0.37;92.10;99119.31;5060471;28;20651;-71
2021/04/13 02:49:51;;;;;;;6.50;6.00;;;;;;;-0.55;92.21;99118.34;5062061;28;20270;-72
2021/04/13 02:52:22;;;;;;;7.27;6.70;;;;;;;-0.52;93.08;99120.81;5060795;28;20199;-70
2021/04/13 02:54:53;;;;;;;7.63;6.60;;;;;;;-0.47;93.60;99115.41;5061162;28;20214;-72
2021/04/13 02:57:24;;;;;;;6.27;5.80;;;;;;;-0.49;92.77;99114.63;5058290;28;20518;-71
2021/04/13 02:59:51;;;;;;;6.20;5.70;;;;;;;-0.61;93.16;99119.44;5056304;28;20221;-72
2021/04/13 03:02:23;;;;;;;6.50;5.90;;;;;;;-0.49;93.42;99120.69;5057763;28;20281;-72
2021/04/13 03:04:53;;;;;;;8.00;6.40;;;;;;;-0.54;93.12;99121.81;5063513;28;20221;-71
2021/04/13 03:07:24;;;;;;;7.67;6.27;;;;;;;-0.53;92.86;99120.88;5061379;28;20253;-72
2021/04/13 03:09:54;;;;;;;7.00;6.40;;;;;;;-0.52;92.58;99115.59;5059500;28;20222;-71
2021/04/13 03:12:22;;;;;;;6.87;6.30;;;;;;;-0.60;93.32;99113.31;5061790;28;20203;-72
2021/04/13 03:14:51;;;;;;;6.80;6.33;;;;;;;-0.65;93.50;99120.47;5061958;28;20195;-72
2021/04/13 03:17:21;;;;;;;7.87;7.20;;;;;;;-0.73;94.51;99117.38;5060872;28;20234;-72
2021/04/13 03:19:51;;;;;;;7.43;6.83;;;;;;;-0.81;95.84;99124.66;5060009;28;20241;-72
2021/04/13 03:22:20;;;;;;;7.33;6.73;;;;;;;-0.85;95.18;99130.91;5062198;28;20298;-72
2021/04/13 03:24:49;;;;;;;7.97;7.37;;;;;;;-0.79;95.97;99128.03;5060027;28;20221;-71
2021/04/13 03:27:19;;;;;;;7.53;6.57;;;;;;;-0.82;95.73;99125.56;5061300;28;20879;-71
2021/04/13 03:29:57;;;;;;;8.73;7.83;;;;;;;-0.85;96.19;99126.53;5061752;28;20237;-72
2021/04/13 03:32:27;;;;;;;8.87;7.70;;;;;;;-0.82;95.81;99123.78;5060304;28;20748;-71
2021/04/13 03:34:55;;;;;;;8.00;7.23;;;;;;;-0.86;96.33;99124.00;5056355;28;20345;-72
2021/04/13 03:37:23;;;;;;;8.60;7.70;;;;;;;-0.82;95.92;99125.56;5055481;28;20238;-72
2021/04/13 03:39:51;;;;;;;7.90;7.20;;;;;;;-0.80;96.04;99128.94;5053333;28;20254;-72
2021/04/13 03:42:20;;;;;;;7.80;7.10;;;;;;;-0.90;96.40;99131.09;5057316;28;20203;-72
2021/04/13 03:44:48;;;;;;;8.83;8.13;;;;;;;-0.91;97.04;99129.38;5061941;28;20217;-71
2021/04/13 03:47:19;;;;;;;8.57;7.77;;;;;;;-0.93;97.09;99128.59;5060667;28;20300;-72
2021/04/13 03:49:48;;;;;;;9.00;8.07;;;;;;;-1.07;97.65;99126.56;5060474;28;20496;-73
2021/04/13 03:52:20;;;;;;;8.50;7.80;;;;;;;-1.08;97.38;99132.69;5059676;28;20217;-73
2021/04/13 03:54:47;;;;;;;8.10;7.47;;;;;;;-1.12;98.62;99128.50;5057037;28;20213;-72
2021/04/13 03:57:28;;;;;;;9.17;8.37;;;;;;;-1.14;98.96;99127.72;5058143;28;20237;-71
2021/04/13 03:59:56;;;;;;;8.73;7.97;;;;;;;-1.17;98.59;99128.69;5060021;28;20233;-73
2021/04/13 04:02:24;;;;;;;8.27;7.57;;;;;;;-1.18;99.63;99127.84;5060778;28;20218;-73
2021/04/13 04:05:03;;;;;;;9.70;8.80;;;;;;;-1.13;99.25;99130.28;5059087;28;20269;-72
2021/04/13 04:07:37;;;;;;;10.10;9.17;;;;;;;-1.12;98.95;99136.31;5060146;28;20209;-72
2021/04/13 04:10:35;;;;;;;9.43;8.50;;;;;;;-1.26;99.96;99131.66;5058354;28;20305;-71
2021/04/13 04:13:05;;;;;;;10.60;9.60;;;;;;;-1.26;100.00;99142.06;5057345;28;20659;-72
2021/04/13 04:15:38;;;;;;;9.87;9.00;;;;;;;-1.28;99.93;99130.88;5055399;28;20585;-72
2021/04/13 04:18:12;;;;;;;9.67;8.80;;;;;;;-1.23;99.30;99139.34;5057999;28;20227;-73
2021/04/13 04:20:40;;;;;;;10.10;9.13;;;;;;;-1.23;100.00;99140.22;5058884;28;20310;-71
2021/04/13 04:23:08;;;;;;;10.57;9.50;;;;;;;-1.32;100.00;99135.38;5059549;28;20205;-71
2021/04/13 04:25:37;;;;;;;12.50;11.37;;;;;;;-1.34;100.00;99134.56;5058416;28;20673;-72
2021/04/13 04:28:14;;;;;;;11.43;10.40;;;;;;;-1.24;99.99;99143.72;5058985;28;20206;-71
2021/04/13 04:30:41;;;;;;;11.83;10.83;;;;;;;-1.36;100.00;99141.56;5059567;28;20977;-72
2021/04/13 04:33:35;;;;;;;12.40;11.13;;;;;;;-1.24;100.00;99141.13;5061667;28;20272;-72
2021/04/13 04:36:24;;;;;;;11.00;10.10;;;;;;;-1.26;100.00;99142.94;5059809;28;20587;-72
2021/04/13 04:38:51;;;;;;;9.70;8.80;;;;;;;-1.22;100.00;99141.91;5056399;28;20223;-72
2021/04/13 04:41:35;;;;;;;13.37;11.97;;;;;;;-1.17;99.79;99145.16;5058046;28;20229;-73
2021/04/13 04:44:03;;;;;;;11.03;10.03;;;;;;;-1.16;99.93;99148.59;5055267;28;20289;-71
2021/04/13 04:46:41;;;;;;;11.17;10.17;;;;;;;-1.32;99.83;99145.78;5058466;28;20207;-72
2021/04/13 04:49:12;;;;;;;18.23;16.53;;;;;;;-1.34;100.00;99148.44;5058292;28;20202;-73
2021/04/13 04:51:40;;;;;;;13.30;12.10;;;;;;;-1.29;100.00;99153.47;5055803;28;20203;-72
2021/04/13 04:54:09;;;;;;;13.13;11.93;;;;;;;-1.33;100.00;99162.25;5059143;28;20202;-72
2021/04/13 04:56:36;;;;;;;12.57;11.47;;;;;;;-1.28;100.00;99162.97;5060379;28;20713;-71
2021/04/13 04:59:04;;;;;;;16.03;14.63;;;;;;;-1.19;100.00;99162.59;5060599;28;20233;-72
2021/04/13 05:01:31;;;;;;;13.43;12.23;;;;;;;-1.11;100.00;99170.09;5061173;28;20253;-72
2021/04/13 05:03:58;;;;;;;13.07;12.00;;;;;;;-1.00;100.00;99164.44;5058467;28;20671;-68
2021/04/13 05:06:27;;;;;;;13.47;12.17;;;;;;;-0.99;100.00;99170.50;5057818;28;20208;-68
2021/04/13 05:08:54;;;;;;;13.47;12.07;;;;;;;-0.83;99.93;99162.91;5061374;28;20206;-67
2021/04/13 05:11:22;;;;;;;12.97;11.80;;;;;;;-0.93;99.56;99172.84;5057429;28;20231;-67
2021/04/13 05:13:49;;;;;;;11.87;10.87;;;;;;;-0.92;100.00;99174.53;5058987;28;20272;-67
2021/04/13 05:16:16;;;;;;;13.80;11.93;;;;;;;-0.85;99.76;99175.97;5060641;28;20199;-66
2021/04/13 05:18:44;;;;;;;14.03;12.73;;;;;;;-0.86;100.00;99178.66;5059960;28;20238;-68
2021/04/13 05:21:11;;;;;;;12.60;11.30;;;;;;;-0.99;100.00;99186.94;5063774;28;20657;-68
2021/04/13 05:23:39;;;;;;;13.20;11.80;;;;;;;-0.94;100.00;99190.25;5060210;28;20207;-71
2021/04/13 05:26:07;;;;;;;13.87;12.73;;;;;;;-0.82;100.00;99188.88;5061066;28;20261;-72
2021/04/13 05:28:34;;;;;;;13.60;12.30;;;;;;;-0.96;100.00;99194.63;5057958;28;20211;-71
2021/04/13 05:31:01;;;;;;;13.50;11.70;;;;;;;-0.75;100.00;99192.94;5057063;28;20798;-72
2021/04/13 05:33:28;;;;;;;11.30;10.20;;;;;;;-0.89;100.00;99198.69;5056840;28;20297;-69
2021/04/13 05:35:56;;;;;;;13.63;12.33;;;;;;;-0.80;100.00;99199.22;5056600;28;20206;-72
2021/04/13 05:38:26;;;;;;;14.23;12.43;;;;;;;-0.75;100.00;99199.88;5061231;28;20227;-71
2021/04/13 05:40:56;;;;;;;12.43;11.13;;;;;;;-0.77;100.00;99199.09;5056522;28;20230;-72
2021/04/13 05:43:24;;;;;;;13.23;12.00;;;;;;;-0.59;100.00;99202.72;5057017;28;20291;-71
2021/04/13 05:45:52;;;;;;;12.57;11.30;;;;;;;-0.48;100.00;99210.09;5058388;28;20342;-71
2021/04/13 05:48:20;;;;;;;12.73;11.57;;;;;;;-0.49;98.98;99211.00;5061988;28;20215;-71
2021/04/13 05:50:48;;;;;;;11.87;10.77;;;;;;;-0.47;100.00;99202.19;5056856;28;20338;-71
2021/04/13 05:53:15;;;;;;;12.70;11.53;;;;;;;-0.16;99.77;99203.50;5061635;28;20221;-71
2021/04/13 05:55:42;;;;;;;13.50;11.87;;;;;;;-0.11;95.96;99212.88;5057028;28;20294;-71
2021/04/13 05:58:14;;;;;;;12.77;11.57;;;;;;;-0.16;95.62;99208.72;5059817;28;20432;-72
2021/04/13 06:00:41;;;;;;;13.87;12.57;;;;;;;-0.15;95.59;99217.38;5059667;28;20234;-71
2021/04/13 06:03:11;;;;;;;13.60;12.30;;;;;;;0.05;95.64;99218.25;5060703;28;20399;-70
2021/04/13 06:05:39;;;;;;;12.60;11.50;;;;;;;-0.21;94.58;99226.31;5058818;28;20684;-72
2021/04/13 06:08:06;;;;;;;12.73;11.43;;;;;;;-0.07;93.73;99217.03;5059165;28;20246;-71
2021/04/13 06:10:33;;;;;;;13.00;11.70;;;;;;;-0.02;93.36;99226.34;5058294;28;20731;-72
2021/04/13 06:13:01;;;;;;;13.23;11.67;;;;;;;-0.08;92.30;99229.22;5056391;28;20297;-71
2021/04/13 06:15:30;;;;;;;13.63;12.23;;;;;;;0.05;91.79;99228.69;5058766;28;20207;-72
2021/04/13 06:17:57;;;;;;;12.83;11.37;;;;;;;0.13;93.88;99235.28;5056363;28;20314;-70
2021/04/13 06:20:26;;;;;;;12.23;11.13;;;;;;;0.10;93.67;99226.72;5062605;28;20418;-71
2021/04/13 06:22:53;;;;;;;12.23;11.03;;;;;;;0.24;93.77;99233.94;5057406;28;20211;-72
2021/04/13 06:25:23;;;;;;;12.70;11.57;;;;;;;0.33;91.28;99235.31;5055789;28;20678;-73
2021/04/13 06:27:51;;;;;;;12.27;11.13;;;;;;;0.37;91.72;99234.25;5062092;28;20321;-75
2021/04/13 06:30:20;;;;;;;11.87;10.77;;;;;;;0.51;90.80;99242.28;5056799;28;20342;-71
2021/04/13 06:32:49;;;;;;;11.23;10.23;;;;;;;0.47;89.56;99243.34;5061400;28;20213;-72
2021/04/13 06:35:17;;;;;;;11.73;10.63;;;;;;;0.59;88.46;99238.50;5057450;28;20238;-72
2021/04/13 06:37:46;;;;;;;16.53;14.77;;;;;;;0.59;88.06;99236.72;5061021;28;20753;-72
2021/04/13 06:40:26;;;;;;;12.67;11.47;;;;;;;0.65;88.61;99243.44;5055299;28;20315;-72
2021/04/13 06:43:00;;;;;;;11.67;10.57;;;;;;;0.80;88.03;99247.94;5058245;28;20297;-73
2021/04/13 06:45:33;;;;;;;13.93;12.63;;;;;;;1.08;87.71;99248.41;5059202;28;20880;-74
2021/04/13 06:48:35;;;;;;;10.90;9.90;;;;;;;1.43;84.28;99246.72;5059865;28;20211;-73
2021/04/13 06:51:09;;;;;;;11.40;10.40;;;;;;;1.54;83.46;99248.81;5058192;28;20706;-73
2021/04/13 06:53:48;;;;;;;10.33;9.53;;;;;;;1.65;81.03;99243.03;5055608;28;20213;-73
2021/04/13 06:56:53;;;;;;;9.43;8.63;;;;;;;1.64;81.30;99249.19;5062597;28;20649;-73
2021/04/13 06:59:50;;;;;;;10.00;9.07;;;;;;;1.83;79.68;99250.88;5053520;28;20341;-72
2021/04/13 07:02:20;;;;;;;10.03;9.13;;;;;;;1.73;79.59;99250.50;5057034;28;20294;-72
2021/04/13 07:04:53;;;;;;;9.93;8.83;;;;;;;1.39;80.77;99249.53;5056852;28;20202;-74
2021/04/13 07:07:28;;;;;;;8.83;8.03;;;;;;;1.51;81.30;99254.16;5055066;28;20821;-72
2021/04/13 07:10:00;;;;;;;11.17;8.87;;;;;;;1.39;81.70;99252.16;5056071;28;20218;-73
2021/04/13 07:12:31;;;;;;;9.03;8.33;;;;;;;1.25;82.48;99253.69;5059143;28;20300;-73
2021/04/13 07:15:03;;;;;;;10.67;9.73;;;;;;;1.30;82.69;99256.06;5052897;28;20213;-74
2021/04/13 07:17:35;;;;;;;9.73;8.87;;;;;;;1.47;81.86;99254.41;5059510;28;21023;-71
2021/04/13 07:20:08;;;;;;;9.67;8.77;;;;;;;1.64;81.17;99248.34;5058347;28;20219;-72
2021/04/13 07:22:39;;;;;;;9.40;8.50;;;;;;;1.65;81.25;99250.88;5057978;28;20207;-72
2021/04/13 07:25:10;;;;;;;11.07;10.07;;;;;;;1.81;81.12;99248.34;5056443;28;20670;-72
2021/04/13 07:27:44;;;;;;;10.23;9.33;;;;;;;1.84;80.59;99250.78;5058497;28;20199;-72
2021/04/13 07:30:18;;;;;;;9.80;9.00;;;;;;;1.92;79.54;99249.59;5057087;28;20238;-72
2021/04/13 07:32:45;;;;;;;9.63;8.73;;;;;;;2.01;80.17;99252.56;5058091;28;20575;-72
2021/04/13 07:35:17;;;;;;;9.80;9.00;;;;;;;1.94;80.59;99248.56;5054864;28;20353;-71
2021/04/13 07:37:46;;;;;;;9.27;8.47;;;;;;;1.96;80.55;99253.72;5057848;28;20213;-72
2021/04/13 07:40:15;;;;;;;8.87;8.10;;;;;;;2.22;79.31;99249.78;5058111;28;20321;-72
2021/04/13 07:42:47;;;;;;;9.17;8.30;;;;;;;2.01;79.67;99249.09;5059107;28;20663;-71
2021/04/13 07:45:33;;;;;;;9.13;8.33;;;;;;;1.84;80.46;99248.19;5060896;28;20221;-72
2021/04/13 07:48:25;;;;;;;9.27;8.37;;;;;;;1.75;80.42;99253.88;5054939;28;20211;-72
2021/04/13 07:51:15;;;;;;;8.73;8.03;;;;;;;1.84;80.17;99256.03;5058864;28;20242;-72
2021/04/13 07:53:53;;;;;;;8.43;7.73;;;;;;;2.02;79.04;99254.25;5056582;28;20298;-72
2021/04/13 07:56:26;;;;;;;8.70;8.00;;;;;;;2.17;79.07;99238.69;5057388;28;20746;-72
2021/04/13 07:58:58;;;;;;;9.50;8.60;;;;;;;2.14;79.26;99249.31;5055659;28;20349;-72
2021/04/13 08:01:26;;;;;;;9.10;8.30;;;;;;;2.26;76.75;99255.66;5054172;28;20203;-72
2021/04/13 08:03:53;;;;;;;9.00;8.07;;;;;;;2.01;77.99;99260.41;5055698;28;20777;-71
2021/04/13 08:06:40;;;;;;;9.20;8.37;;;;;;;2.38;76.24;99262.88;5058914;28;20237;-71
2021/04/13 08:09:36;;;;;;;9.13;8.30;;;;;;;2.82;75.45;99255.34;5052275;28;20215;-72
2021/04/13 08:12:11;;;;;;;9.00;8.13;;;;;;;3.02;72.30;99254.25;5035405;28;20695;-72
2021/04/13 08:14:40;;;;;;;8.63;7.93;;;;;;;3.06;72.42;99260.19;5051923;28;20225;-72
2021/04/13 08:17:13;;;;;;;9.27;8.53;;;;;;;2.99;70.97;99252.66;5053990;28;20735;-72
2021/04/13 08:19:42;;;;;;;9.00;8.30;;;;;;;3.06;71.10;99255.78;5056993;28;20723;-72
2021/04/13 08:22:13;;;;;;;9.73;8.93;;;;;;;2.95;71.36;99250.28;5051454;28;20199;-71
2021/04/13 08:24:42;;;;;;;9.37;8.57;;;;;;;2.88;72.19;99255.03;5049908;28;20214;-72
2021/04/13 08:27:23;;;;;;;9.30;8.57;;;;;;;3.02;71.51;99251.66;5058667;28;20368;-71
2021/04/13 08:29:58;;;;;;;11.47;10.10;;;;;;;3.10;71.27;99249.44;5057122;28;20227;-72
2021/04/13 08:32:50;;;;;;;8.97;8.27;;;;;;;3.30;69.33;99253.56;5053682;28;20206;-71
2021/04/13 08:35:34;;;;;;;13.57;8.33;;;;;;;3.78;70.87;99246.53;5054588;28;20203;-71
2021/04/13 08:38:21;;;;;;;9.53;8.50;;;;;;;4.14;65.78;99232.97;5051414;28;20234;-72
2021/04/13 08:41:09;;;;;;;8.90;8.17;;;;;;;4.19;66.33;99240.59;5027905;28;20761;-72
2021/04/13 08:43:50;;;;;;;8.70;8.00;;;;;;;4.07;65.34;99241.34;5053857;28;20252;-72
2021/04/13 08:46:23;;;;;;;8.90;8.20;;;;;;;4.22;63.92;99239.56;5048883;28;20207;-72
2021/04/13 08:49:00;;;;;;;9.37;8.47;;;;;;;4.32;63.77;99236.28;5055230;28;20222;-71
2021/04/13 08:51:42;;;;;;;8.77;8.07;;;;;;;4.01;63.85;99243.41;5056669;28;20202;-73
2021/04/13 08:54:29;;;;;;;9.33;8.53;;;;;;;3.80;64.86;99235.03;5056036;28;20825;-71
2021/04/13 08:57:01;;;;;;;8.77;8.07;;;;;;;4.18;63.51;99239.75;5057969;28;20318;-71
2021/04/13 08:59:38;;;;;;;8.63;7.93;;;;;;;4.32;61.71;99241.53;5059094;28;20284;-70
2021/04/13 09:02:12;;;;;;;8.53;7.63;;;;;;;4.53;59.73;99235.91;5063125;28;20198;-67
2021/04/13 09:04:39;;;;;;;9.70;8.83;;;;;;;4.71;60.14;99233.06;5062014;28;20296;-67
2021/04/13 09:07:08;;;;;;;9.27;8.47;;;;;;;4.81;60.55;99233.34;5059126;28;20195;-68
2021/04/13 09:09:43;;;;;;;8.80;8.10;;;;;;;4.74;58.56;99238.97;5062177;28;20231;-67
2021/04/13 09:12:28;;;;;;;8.57;7.97;;;;;;;5.10;58.53;99239.34;5054923;28;20214;-66
2021/04/13 09:15:09;;;;;;;8.50;7.70;;;;;;;4.87;58.80;99241.69;5062885;28;20199;-67
2021/04/13 09:17:44;;;;;;;8.87;8.17;;;;;;;4.53;60.49;99249.03;5053343;28;20619;-67
2021/04/13 09:20:18;;;;;;;8.70;8.00;;;;;;;4.46;57.90;99242.47;5062925;28;20322;-67
2021/04/13 09:22:51;;;;;;;8.60;8.00;;;;;;;4.49;58.19;99250.16;5058084;28;20257;-67
2021/04/13 09:25:31;;;;;;;8.63;7.83;;;;;;;4.49;58.80;99247.53;5056003;28;20203;-66
2021/04/13 09:28:07;;;;;;;9.27;8.30;;;;;;;4.81;56.68;99246.47;5059128;28;20349;-71
2021/04/13 09:30:36;;;;;;;8.00;7.50;;;;;;;4.78;56.86;99247.53;5059546;28;20877;-71
2021/04/13 09:33:07;;;;;;;7.47;6.97;;;;;;;5.07;55.55;99250.06;5061703;28;20238;-71
2021/04/13 09:36:03;;;;;;;8.07;7.43;;;;;;;4.88;53.52;99243.38;5058080;28;20578;-72
2021/04/13 09:38:45;;;;;;;7.60;7.00;;;;;;;4.70;54.50;99249.75;5057817;28;20223;-71
2021/04/13 09:41:19;;;;;;;7.40;6.80;;;;;;;4.70;54.21;99239.25;5057351;28;20703;-71
2021/04/13 09:44:00;;;;;;;6.27;5.83;;;;;;;4.42;50.77;99247.06;5059692;28;20201;-71
2021/04/13 09:46:44;;;;;;;7.33;6.73;;;;;;;4.36;52.84;99244.81;5057361;28;20315;-71
2021/04/13 09:49:34;;;;;;;6.83;6.23;;;;;;;4.23;51.11;99228.97;5056803;28;20253;-70
2021/04/13 09:52:14;;;;;;;6.13;5.73;;;;;;;4.37;51.71;99240.44;5054313;28;20276;-71
2021/04/13 09:54:43;;;;;;;6.97;6.47;;;;;;;4.69;51.86;99233.19;5056853;28;20199;-71
2021/04/13 09:57:46;;;;;;;7.67;7.17;;;;;;;5.22;50.46;99230.69;5061225;28;20276;-71
2021/04/13 10:00:29;;;;;;;6.83;6.23;;;;;;;5.54;50.14;99223.44;5030406;28;20230;-71
2021/04/13 10:03:45;;;;;;;6.17;5.60;;;;;;;5.74;47.81;99230.84;5058776;28;20207;-72
2021/04/13 10:06:14;;;;;;;7.10;6.40;;;;;;;5.73;48.58;99233.59;5055551;28;20764;-71
2021/04/13 10:08:45;;;;;;;6.93;6.43;;;;;;;5.13;49.43;99231.31;5059155;28;20324;-71
2021/04/13 10:11:30;;;;;;;7.73;6.93;;;;;;;5.05;50.14;99231.78;5059693;28;20261;-71
2021/04/13 10:14:12;;;;;;;7.20;6.70;;;;;;;4.79;51.14;99222.94;5059937;28;20603;-71
2021/04/13 10:16:47;;;;;;;6.27;5.83;;;;;;;4.86;50.67;99220.75;5058859;28;20218;-71
2021/04/13 10:19:46;;;;;;;7.57;6.10;;;;;;;5.12;49.96;99218.25;5052441;28;20313;-72
2021/04/13 10:22:32;;;;;;;6.50;6.00;;;;;;;5.20;48.46;99216.81;5056906;28;20213;-72
2021/04/13 10:25:18;;;;;;;6.47;5.97;;;;;;;5.77;44.26;99214.00;5059694;28;20202;-71
2021/04/13 10:28:14;;;;;;;5.83;5.43;;;;;;;5.60;42.93;99217.78;5057147;28;20757;-70
2021/04/13 10:31:27;;;;;;;6.00;5.60;;;;;;;5.30;44.52;99221.47;5036302;28;20318;-71
2021/04/13 10:34:28;;;;;;;6.73;6.20;;;;;;;5.20;46.05;99222.06;5054684;28;20203;-70
2021/04/13 10:37:23;;;;;;;6.67;6.17;;;;;;;6.07;46.23;99207.66;5025332;28;20571;-70
2021/04/13 10:40:04;;;;;;;6.53;6.07;;;;;;;6.29;46.26;99200.88;5056955;28;20224;-70
2021/04/13 10:43:04;;;;;;;7.00;6.40;;;;;;;6.25;45.53;99197.66;5061727;28;20376;-71
2021/04/13 10:45:55;;;;;;;6.07;5.57;;;;;;;5.98;43.84;99195.94;5057080;28;20202;-71
2021/04/13 10:48:58;;;;;;;6.63;6.10;;;;;;;5.62;44.75;99208.00;5052965;28;20211;-71
2021/04/13 10:51:55;;;;;;;5.80;5.40;;;;;;;5.72;44.65;99209.06;5050706;28;20213;-70
2021/04/13 10:55:19;;;;;;;5.70;5.30;;;;;;;5.47;44.51;99202.78;5059126;28;20238;-70
2021/04/13 10:58:18;;;;;;;5.40;5.00;;;;;;;5.83;43.60;99202.22;4998931;28;20463;-71
2021/04/13 11:01:17;;;;;;;5.57;5.23;;;;;;;5.70;43.64;99197.78;4998439;28;20235;-70
2021/04/13 11:04:26;;;;;;;5.10;4.80;;;;;;;6.66;41.64;99187.75;5057067;28;20582;-71
2021/04/13 11:07:26;;;;;;;6.00;5.60;;;;;;;7.43;41.25;99178.69;4995403;28;20214;-71
2021/04/13 11:10:11;;;;;;;5.03;4.73;;;;;;;7.45;39.93;99179.41;5021395;28;20224;-72
2021/04/13 11:13:12;;;;;;;4.57;4.27;;;;;;;6.73;38.90;99185.53;5057794;28;20305;-72
2021/04/13 11:16:07;;;;;;;3.87;3.67;;;;;;;6.94;38.12;99178.69;5053072;28;20528;-71
2021/04/13 11:19:05;;;;;;;4.30;4.00;;;;;;;7.76;35.63;99178.88;5057750;28;20222;-71
2021/04/13 11:22:06;;;;;;;4.70;4.40;;;;;;;7.31;38.24;99180.44;5055587;28;20207;-71
2021/04/13 11:24:43;;;;;;;4.67;4.37;;;;;;;7.41;39.54;99177.97;5059386;28;20225;-71
2021/04/13 11:27:44;;;;;;;4.80;4.50;;;;;;;7.10;40.55;99175.78;5056071;28;20298;-71
2021/04/13 11:30:58;;;;;;;4.33;4.03;;;;;;;6.89;40.33;99186.09;5028772;28;20300;-72
2021/04/13 11:34:05;;;;;;;3.80;3.47;;;;;;;6.39;41.36;99187.94;5059263;28;20210;-71
2021/04/13 11:36:48;;;;;;;4.40;4.00;;;;;;;5.94;41.81;99186.56;5034578;28;20207;-71
2021/04/13 11:39:24;;;;;;;5.67;4.33;;;;;;;5.98;41.20;99180.13;5054871;28;20474;-72
2021/04/13 11:42:10;;;;;;;4.60;4.30;;;;;;;6.51;41.19;99166.84;5056621;28;20208;-71
2021/04/13 11:44:41;;;;;;;5.00;4.60;;;;;;;6.84;40.95;99168.97;5055289;28;20211;-71
2021/04/13 11:47:19;;;;;;;4.77;4.47;;;;;;;6.69;38.71;99173.53;5058643;28;20207;-71
2021/04/13 11:49:54;;;;;;;4.37;4.00;;;;;;;7.22;34.55;99170.59;5049446;28;20713;-72
2021/04/13 11:52:28;;;;;;;4.43;4.03;;;;;;;7.76;36.69;99157.78;5056399;28;20220;-72
2021/04/13 11:54:56;;;;;;;4.77;4.47;;;;;;;7.58;37.26;99154.75;5052469;28;20208;-71
2021/04/13 11:57:24;;;;;;;3.63;3.43;;;;;;;7.46;35.54;99156.50;5052637;28;20215;-72
2021/04/13 12:00:25;;;;;;;3.53;3.33;;;;;;;7.92;35.42;99157.44;5055336;28;20517;-72
2021/04/13 12:03:22;;;;;;;3.77;3.40;;;;;;;7.94;33.79;99152.88;5012861;28;20285;-72
2021/04/13 12:05:50;;;;;;;3.70;3.50;;;;;;;7.95;33.38;99154.56;5057718;28;20311;-72
2021/04/13 12:08:45;;;;;;;3.90;3.70;;;;;;;7.72;34.69;99145.78;5053493;28;20566;-72
2021/04/13 12:11:15;;;;;;;3.90;3.60;;;;;;;8.18;33.17;99146.66;5055900;28;20538;-71
2021/04/13 12:13:46;;;;;;;4.10;3.80;;;;;;;7.83;33.44;99148.44;5058720;28;20227;-72
2021/04/13 12:16:17;;;;;;;3.70;3.40;;;;;;;9.32;32.50;99147.25;5057009;28;20210;-72